St. Margarethen - Festspielgelnde
Wetterdaten: aktuell Montag, 22.04.2019 10:07
Datum Zeit Temp. A. Feuchte A. Regen Wind Richtung Richtung Taupunkt Windchill Windben
22.04.2019 10:07 14,7 C 54 % 0,0 l/m 0,0 km/h (0 Bft) O-NO 57 5,5 C 14,7 C 0,0 km/h (0 Bft)
22.04.2019 09:07 13,2 C 56 % 0,0 l/m 1,1 km/h (1 Bft) O-NO 61 4,6 C 13,2 C 3,2 km/h (1 Bft)
22.04.2019 08:08 9,3 C 67 % 0,0 l/m 0,0 km/h (0 Bft) W-SW 246 3,5 C 9,3 C 0,0 km/h (0 Bft)
22.04.2019 07:09 7,3 C 70 % 0,0 l/m 0,0 km/h (0 Bft) SW 229 2,2 C 7,3 C 0,0 km/h (0 Bft)
22.04.2019 06:10 6,6 C 72 % 0,0 l/m 0,0 km/h (0 Bft) W-SW 240 1,9 C 6,6 C 0,0 km/h (0 Bft)
22.04.2019 05:11 7,1 C 69 % 0,0 l/m 0,0 km/h (0 Bft) W-SW 249 1,8 C 7,1 C 0,0 km/h (0 Bft)
22.04.2019 04:12 8,2 C 64 % 0,0 l/m 0,0 km/h (0 Bft) W-SW 255 1,8 C 8,2 C 0,0 km/h (0 Bft)
22.04.2019 03:13 8,7 C 63 % 0,0 l/m 0,0 km/h (0 Bft) W-SW 243 2,1 C 8,7 C 0,0 km/h (0 Bft)
22.04.2019 02:14 10,0 C 57 % 0,0 l/m 0,0 km/h (0 Bft) SW 235 1,9 C 10,0 C 0,0 km/h (0 Bft)
22.04.2019 01:14 10,2 C 55 % 0,0 l/m 3,9 km/h (1 Bft) SW 235 1,6 C 10,2 C 6,4 km/h (2 Bft)
22.04.2019 00:15 10,9 C 54 % 0,0 l/m 5,6 km/h (1 Bft) W 259 2,0 C 10,9 C 8,0 km/h (2 Bft)
21.04.2019 23:16 11,5 C 53 % 0,0 l/m 0,0 km/h (0 Bft) W 275 2,3 C 11,5 C 0,0 km/h (0 Bft)
21.04.2019 22:17 13,9 C 43 % 0,0 l/m 0,0 km/h (0 Bft) W-SW 255 1,5 C 13,9 C 0,0 km/h (0 Bft)
21.04.2019 21:17 16,5 C 34 % 0,0 l/m 0,0 km/h (0 Bft) N-NW 330 0,6 C 16,5 C 0,0 km/h (0 Bft)
21.04.2019 20:15 17,5 C 31 % 0,0 l/m 0,0 km/h (0 Bft) O-NO 59 0,2 C 17,5 C 0,0 km/h (0 Bft)
21.04.2019 19:13 19,3 C 30 % 0,0 l/m 0,0 km/h (0 Bft) N-NO 22 1,3 C 19,3 C 0,0 km/h (0 Bft)
21.04.2019 18:12 20,8 C 27 % 0,0 l/m 4,8 km/h (1 Bft) N-NW 342 1,1 C 20,8 C 9,7 km/h (2 Bft)
21.04.2019 17:13 20,8 C 31 % 0,0 l/m 0,0 km/h (0 Bft) N-NO 15 3,1 C 20,8 C 0,0 km/h (0 Bft)
21.04.2019 16:14 20,7 C 31 % 0,0 l/m 5,6 km/h (1 Bft) O 95 3,0 C 20,7 C 11,3 km/h (2 Bft)
21.04.2019 15:15 20,5 C 32 % 0,0 l/m 8,5 km/h (2 Bft) O-NO 69 3,2 C 19,7 C 12,9 km/h (3 Bft)
21.04.2019 14:15 20,8 C 31 % 0,0 l/m 4,0 km/h (1 Bft) NO 44 3,1 C 20,8 C 9,7 km/h (2 Bft)
21.04.2019 13:16 20,2 C 32 % 0,0 l/m 5,7 km/h (1 Bft) O-NO 69 3,0 C 20,2 C 9,7 km/h (2 Bft)
21.04.2019 12:16 18,8 C 34 % 0,0 l/m 0,0 km/h (0 Bft) O 84 2,6 C 18,8 C 0,0 km/h (0 Bft)
21.04.2019 11:17 19,1 C 34 % 0,0 l/m 0,0 km/h (0 Bft) W-SW 242 2,9 C 19,1 C 0,0 km/h (0 Bft)
21.04.2019 11:00 17,9 C 34 % 0,0 l/m 2,0 km/h (1 Bft) NW 311 1,8 C 17,9 C 4,8 km/h (1 Bft)
_ Min-Zeit 05:34 17:26 - 11:03 - - 20:13 05:34 11:03
Minimum _ 6,6 C 27 % - 0,0 km/h (0 Bft) - - 0,1 C 6,6 C 0,0 km/h (0 Bft)
_ Max-Zeit 15:02 06:02 11:00 14:41 - - 09:51 17:25 13:52
Maximum _ 21,6 C 72 % 0,0 l/m 14,5 km/h
O (3 Bft)
- - 5,8 C 21,6 C 22,5 km/h
O-NO (4 Bft)
Durchschnitt _ 14,7 C 46 % #0,0 l/m 1,2 km/h (1 Bft) O-NO - 2,3 C 14,7 C 2,5 km/h (1 Bft)